Ergebnisliste vom: 24.09.2016 - Ziegenhain2016 - 6 km

weitere Ergebnisse >>

Platz Pl.m PL.w Stnr. Name,Vorname Verein Jhg. AK AKm AKw Endzeit RŘckst.
1 1   230 R├╝hle, Nico SC Riesa Triathlon   mJug 1   0:23:25 0:00:00
2 2   255 F├Ârster, Lukas SG Gr├╝ne Eiche Gro├čthiemig 99 mJug 2   0:23:39 0:00:14
3   1 234 Stich, Grit Radebeul 70 W45   1 0:24:02 0:00:37
4 3   221 Marschner, Marco Hainichen 84 M├Ąnner 1   0:24:36 0:01:11
5 4   214 Jancker, Hans-Dieter SV Elbland Mei├čen-Coswig 52 M60 1   0:24:56 0:01:31
6   2 241 Hammer, Dorothea SC Riesa Triathlon 80 W35   1 0:25:30 0:02:05
7 5   247 Berger, Victor TuS Coswig 1920 53 M60 2   0:26:26 0:03:01
8   3 259 Gtittel, Juliane Chemie Wacker AG N├╝nchritz 79 W35   2 0:26:34 0:03:09
9 6   223 Mei├čner, Frank VS Freital 50 M65 1   0:26:36 0:03:11
10   4 219 Lehmann, Birgit BSV Chemie Radebeul 64 W50+   1 0:27:04 0:03:39
11 7   217 Kutschka von Rothenfels, Dominic Dresden   mJug 3   0:27:15 0:03:50
12   5 201 Baum, Kathrin SV Elbland Mei├čen-Coswig 74 W40   1 0:27:27 0:04:02
13 8   237 Winter, J├╝rgen LG TuS Weinb├Âhla 48 M65 2   0:27:33 0:04:08
14 9   264 Walther, Max SC Riesa 99 mJug 4   0:27:39 0:04:14
15 10   212 Heyer, Ulrich Chemnitz 53 M60 3   0:27:55 0:04:30
16   6 250 Dewitz, Silke ESV Lok D├Âbeln 67 W45   2 0:28:05 0:04:40
17   7 245 Lehmann, Anne-Kathrin Mei├čen 76 W40   2 0:28:24 0:04:59
18 11   246 Adam, Moritz Wolkau 4 mJug 5   0:28:42 0:05:17
19 12   244 Schliwa, Alexander Team Tempus   mJug 6   0:29:04 0:05:39
20 13   375 May, Norman Thiendorf 85 M├Ąnner 2   0:29:18 0:05:53
21   8 216 K├╝mmel, Petra LG Priestewitz 65 W50+   2 0:29:41 0:06:16
22   9 242 Schinke, Mandy Dresden 84 W30   1 0:30:03 0:06:38
23   10 225 Preu├čner, Kristina Lauffreunde N├╝ne 74 W40   3 0:30:11 0:06:46
24   11 211 Heyer, Ina Chemnitz 80 W35   3 0:30:41 0:07:16
25 14   202 Behrisch, Siegmar Radeburg 53 M60 4   0:30:42 0:07:17
26   12 206 Hammer, Ines Wacker Chemie N├╝nchritz 70 W45   3 0:30:55 0:07:30
27 15   220 L├Âwe, Florian Lauftreff OS Weinb├Âhla   mJug 7   0:31:32 0:08:07
28   13 248 Berge, Anett Riesa 64 W50+   3 0:31:37 0:08:12
29   14 256 Irmscher, Antje Riesa 77 W35   4 0:31:41 0:08:16
30   15 243 K├╝hnast, Jana Starbach 73 W40   4 0:31:59 0:08:34
31   16 228 Richter, Manuela LG Priestewitz 74 W40   5 0:32:14 0:08:49
31 16   251 Schubert, Lothar WSV Riesa 53 M60 5   0:32:14 0:08:49
33   17 261 Englisch, Sandy Dresden 69 W45   4 0:32:20 0:08:55
34 17   258 Gr├Ąfe, Niklas   8 mJug 8   0:32:21 0:08:56
35 18   231 Schmidt, Daniel Real Egal Radeburg 80 M├Ąnner 3   0:32:26 0:09:01
36 19   204 Eisemuth, Sandro SV Lampertswalde 81 M├Ąnner 4   0:32:32 0:09:07
37 20   252 von Wenckstern, Andreas   69 M├Ąnner 5   0:32:45 0:09:20
38 21   233 Senf, Dietmar Gro├čbothen 51 M65 3   0:32:47 0:09:22
39 22   240 Golbs, Michael Tauchclub Abyss Meissen 70 M├Ąnner 6   0:32:50 0:09:25
40   18 207 H├Ąu├čler, Ines Gro├čenhain 68 W45   5 0:32:53 0:09:28
41 23   263 Noppes, Ralf SV Nordwind Naund├Ârfel 76 M├Ąnner 7   0:32:57 0:09:32
42   19 229 R├╝hle, Ivonne Lichtensee 71 W45   6 0:32:59 0:09:34
43 24   257 Ilmberger, Dirk   72 M├Ąnner 8   0:33:07 0:09:42
44   20 213 Hilse, Yvette Peritz 67 W45   7 0:33:49 0:10:24
45 25   239 Mauke, Holger Schmiedewalde 58 M├Ąnner 9   0:34:16 0:10:51
46   21 210 Hendricks-Frenkel, Lelia Moritzburg 78 W35   5 0:34:25 0:11:00
47 26   224 H├Ąu├čler, Norman Gro├čenhainer RV 97 mJug 9   0:35:03 0:11:38
48 27   215 Klengel, Frank Naunhof 67 M├Ąnner 10   0:35:16 0:11:51
49   22 203 Blaas, Aline SV Chemie N├╝nchritz 97 wJug   1 0:35:18 0:11:53
50 28   222 Meier, Friedhard Niederau 53 M60 6   0:35:43 0:12:18
51 29   260 Goedderz, Klaus Riesa 56 M60 7   0:36:34 0:13:09
52   23 249 Feder, Anja VLH 81 W35   6 0:37:36 0:14:11
53 30   262 Walter, J├Ârg   70 M├Ąnner 11   0:37:56 0:14:31
54 31   209 Heinrich, Dietmar SV Elbland Mei├čen-Coswig 47 M65 4   0:39:24 0:15:59
55   24 208 H├Ąu├čler, Maren Gro├čenhainer RV 98 wJug   2 0:40:06 0:16:41
56   25 235 Thiele, Franziska Dresden 81 W35   7 0:40:22 0:16:57
57   26 218 Kutschka von Rothenfels, Ines LG Mauerweg 77 W35   8 0:40:42 0:17:17
58   27 236 Thieme, Annett Ebersbach 77 W35   9 0:40:51 0:17:26
59 32   253 von Wenckstern, Christian SC 29 Gleisberg 6 mJug 10   0:41:45 0:18:20
59 32   254 Krause, Lennart Ro├čweiner SV 6 mJug 10   0:41:45 0:18:20
(c) 1990-2020 Blue Wonder Sport Promotion - Andreas Burow - Zeitnahme & Auswertung - www.Triathlon-Service.de